sensor_id;sensor_type;location;lat;lon;timestamp;pressure;altitude;pressure_sealevel;temperature
34310;BMP280;61664;48.112;11.662;2022-11-14T00:01:11;95525.72;;;8.43
34310;BMP280;61664;48.112;11.662;2022-11-14T00:03:39;95543.28;;;8.41
34310;BMP280;61664;48.112;11.662;2022-11-14T00:06:07;95533.78;;;8.31
34310;BMP280;61664;48.112;11.662;2022-11-14T00:08:34;95519.81;;;8.17
34310;BMP280;61664;48.112;11.662;2022-11-14T00:11:01;95520.56;;;8.18
34310;BMP280;61664;48.112;11.662;2022-11-14T00:13:28;95517.19;;;8.27
34310;BMP280;61664;48.112;11.662;2022-11-14T00:15:55;95511.34;;;8.32
34310;BMP280;61664;48.112;11.662;2022-11-14T00:18:22;95505.59;;;8.42
34310;BMP280;61664;48.112;11.662;2022-11-14T00:20:51;95503.53;;;8.46
34310;BMP280;61664;48.112;11.662;2022-11-14T00:23:20;95507.56;;;8.51
34310;BMP280;61664;48.112;11.662;2022-11-14T00:25:48;95513.03;;;8.56
34310;BMP280;61664;48.112;11.662;2022-11-14T00:28:15;95505.78;;;8.57
34310;BMP280;61664;48.112;11.662;2022-11-14T00:30:47;95505.34;;;8.59
34310;BMP280;61664;48.112;11.662;2022-11-14T00:33:15;95521.06;;;8.66
34310;BMP280;61664;48.112;11.662;2022-11-14T00:35:56;95513.50;;;8.64
34310;BMP280;61664;48.112;11.662;2022-11-14T00:38:23;95520.19;;;8.69
34310;BMP280;61664;48.112;11.662;2022-11-14T00:40:50;95520.03;;;8.63
34310;BMP280;61664;48.112;11.662;2022-11-14T00:43:17;95526.53;;;8.62
34310;BMP280;61664;48.112;11.662;2022-11-14T00:45:46;95535.72;;;8.61
34310;BMP280;61664;48.112;11.662;2022-11-14T00:48:14;95538.69;;;8.63
34310;BMP280;61664;48.112;11.662;2022-11-14T00:50:42;95523.09;;;8.52
34310;BMP280;61664;48.112;11.662;2022-11-14T00:53:10;95519.53;;;8.55
34310;BMP280;61664;48.112;11.662;2022-11-14T00:55:37;95517.31;;;8.54
34310;BMP280;61664;48.112;11.662;2022-11-14T00:58:04;95514.66;;;8.54
34310;BMP280;61664;48.112;11.662;2022-11-14T01:00:30;95513.19;;;8.53
34310;BMP280;61664;48.112;11.662;2022-11-14T01:02:57;95515.25;;;8.58
34310;BMP280;61664;48.112;11.662;2022-11-14T01:05:25;95516.63;;;8.63
34310;BMP280;61664;48.112;11.662;2022-11-14T01:07:52;95510.56;;;8.62
34310;BMP280;61664;48.112;11.662;2022-11-14T01:10:19;95500.47;;;8.57
34310;BMP280;61664;48.112;11.662;2022-11-14T01:12:47;95513.78;;;8.57
34310;BMP280;61664;48.112;11.662;2022-11-14T01:15:13;95528.28;;;8.56
34310;BMP280;61664;48.112;11.662;2022-11-14T01:17:40;95516.78;;;8.37
34310;BMP280;61664;48.112;11.662;2022-11-14T01:20:07;95524.03;;;8.37
34310;BMP280;61664;48.112;11.662;2022-11-14T01:22:34;95519.84;;;8.27
34310;BMP280;61664;48.112;11.662;2022-11-14T01:25:01;95504.41;;;8.12
34310;BMP280;61664;48.112;11.662;2022-11-14T01:27:31;95509.91;;;8.18
34310;BMP280;61664;48.112;11.662;2022-11-14T01:29:58;95517.59;;;8.16
34310;BMP280;61664;48.112;11.662;2022-11-14T01:32:26;95519.81;;;8.17
34310;BMP280;61664;48.112;11.662;2022-11-14T01:34:54;95500.56;;;8.13
34310;BMP280;61664;48.112;11.662;2022-11-14T01:37:21;95512.13;;;8.19
34310;BMP280;61664;48.112;11.662;2022-11-14T01:39:48;95495.25;;;8.13
34310;BMP280;61664;48.112;11.662;2022-11-14T01:42:14;95485.78;;;8.12
34310;BMP280;61664;48.112;11.662;2022-11-14T01:44:51;95485.22;;;8.17
34310;BMP280;61664;48.112;11.662;2022-11-14T01:47:28;95469.19;;;8.08
34310;BMP280;61664;48.112;11.662;2022-11-14T01:50:00;95482.25;;;8.15
34310;BMP280;61664;48.112;11.662;2022-11-14T01:52:38;95489.09;;;8.26
34310;BMP280;61664;48.112;11.662;2022-11-14T01:55:08;95490.56;;;8.27
34310;BMP280;61664;48.112;11.662;2022-11-14T01:57:46;95470.56;;;8.13
34310;BMP280;61664;48.112;11.662;2022-11-14T02:00:14;95495.97;;;8.14
34310;BMP280;61664;48.112;11.662;2022-11-14T02:02:42;95481.84;;;7.95
34310;BMP280;61664;48.112;11.662;2022-11-14T02:05:14;95485.94;;;7.87
34310;BMP280;61664;48.112;11.662;2022-11-14T02:07:42;95469.25;;;7.65
34310;BMP280;61664;48.112;11.662;2022-11-14T02:12:44;95483.97;;;7.56
34310;BMP280;61664;48.112;11.662;2022-11-14T02:15:13;95478.03;;;7.52
34310;BMP280;61664;48.112;11.662;2022-11-14T02:17:41;95470.72;;;7.44
34310;BMP280;61664;48.112;11.662;2022-11-14T02:22:39;95480.34;;;7.50
34310;BMP280;61664;48.112;11.662;2022-11-14T02:25:09;95474.50;;;7.55
34310;BMP280;61664;48.112;11.662;2022-11-14T02:27:38;95484.34;;;7.68
34310;BMP280;61664;48.112;11.662;2022-11-14T02:30:14;95485.56;;;7.76
34310;BMP280;61664;48.112;11.662;2022-11-14T02:32:42;95476.97;;;7.72
34310;BMP280;61664;48.112;11.662;2022-11-14T02:35:29;95493.25;;;7.74
34310;BMP280;61664;48.112;11.662;2022-11-14T02:37:56;95495.25;;;7.70
34310;BMP280;61664;48.112;11.662;2022-11-14T02:40:23;95482.28;;;7.72
34310;BMP280;61664;48.112;11.662;2022-11-14T02:42:50;95473.97;;;7.70
34310;BMP280;61664;48.112;11.662;2022-11-14T02:45:17;95467.47;;;7.71
34310;BMP280;61664;48.112;11.662;2022-11-14T02:47:45;95467.81;;;7.73
34310;BMP280;61664;48.112;11.662;2022-11-14T02:50:12;95466.38;;;7.81
34310;BMP280;61664;48.112;11.662;2022-11-14T02:52:39;95467.53;;;7.80
34310;BMP280;61664;48.112;11.662;2022-11-14T02:55:06;95449.44;;;7.87
34310;BMP280;61664;48.112;11.662;2022-11-14T02:57:33;95447.09;;;7.89
34310;BMP280;61664;48.112;11.662;2022-11-14T03:00:00;95445.16;;;7.90
34310;BMP280;61664;48.112;11.662;2022-11-14T03:02:27;95441.16;;;7.85
34310;BMP280;61664;48.112;11.662;2022-11-14T03:04:53;95432.97;;;7.80
34310;BMP280;61664;48.112;11.662;2022-11-14T03:07:20;95437.88;;;7.81
34310;BMP280;61664;48.112;11.662;2022-11-14T03:09:47;95441.41;;;7.78
34310;BMP280;61664;48.112;11.662;2022-11-14T03:12:17;95444.63;;;7.73
34310;BMP280;61664;48.112;11.662;2022-11-14T03:14:45;95447.16;;;7.77
34310;BMP280;61664;48.112;11.662;2022-11-14T03:17:11;95435.16;;;7.72
34310;BMP280;61664;48.112;11.662;2022-11-14T03:19:38;95439.19;;;7.77
34310;BMP280;61664;48.112;11.662;2022-11-14T03:22:05;95436.81;;;7.79
34310;BMP280;61664;48.112;11.662;2022-11-14T03:24:32;95425.44;;;7.78
34310;BMP280;61664;48.112;11.662;2022-11-14T03:26:59;95441.88;;;7.86
34310;BMP280;61664;48.112;11.662;2022-11-14T03:29:27;95437.75;;;7.85
34310;BMP280;61664;48.112;11.662;2022-11-14T03:31:53;95435.22;;;7.81
34310;BMP280;61664;48.112;11.662;2022-11-14T03:34:20;95448.81;;;7.83
34310;BMP280;61664;48.112;11.662;2022-11-14T03:36:47;95457.41;;;7.87
34310;BMP280;61664;48.112;11.662;2022-11-14T03:39:14;95443.31;;;7.78
34310;BMP280;61664;48.112;11.662;2022-11-14T03:41:41;95446.03;;;7.87
34310;BMP280;61664;48.112;11.662;2022-11-14T03:44:07;95439.97;;;7.86
34310;BMP280;61664;48.112;11.662;2022-11-14T03:46:34;95438.09;;;7.96
34310;BMP280;61664;48.112;11.662;2022-11-14T03:49:01;95440.22;;;8.01
34310;BMP280;61664;48.112;11.662;2022-11-14T03:51:28;95445.38;;;8.05
34310;BMP280;61664;48.112;11.662;2022-11-14T03:53:55;95451.72;;;7.98
34310;BMP280;61664;48.112;11.662;2022-11-14T03:56:22;95458.19;;;7.97
34310;BMP280;61664;48.112;11.662;2022-11-14T03:58:49;95464.16;;;8.01
34310;BMP280;61664;48.112;11.662;2022-11-14T04:01:16;95443.72;;;7.98
34310;BMP280;61664;48.112;11.662;2022-11-14T04:03:43;95458.44;;;8.12
34310;BMP280;61664;48.112;11.662;2022-11-14T04:06:10;95447.81;;;8.12
34310;BMP280;61664;48.112;11.662;2022-11-14T04:08:39;95459.78;;;8.16
34310;BMP280;61664;48.112;11.662;2022-11-14T04:11:06;95456.31;;;8.07
34310;BMP280;61664;48.112;11.662;2022-11-14T04:13:33;95471.00;;;8.11
34310;BMP280;61664;48.112;11.662;2022-11-14T04:16:00;95437.31;;;7.86
34310;BMP280;61664;48.112;11.662;2022-11-14T04:18:27;95458.94;;;7.98
34310;BMP280;61664;48.112;11.662;2022-11-14T04:20:55;95451.84;;;7.95
34310;BMP280;61664;48.112;11.662;2022-11-14T04:23:21;95447.69;;;7.94
34310;BMP280;61664;48.112;11.662;2022-11-14T04:25:48;95461.34;;;8.05
34310;BMP280;61664;48.112;11.662;2022-11-14T04:28:15;95449.09;;;8.07
34310;BMP280;61664;48.112;11.662;2022-11-14T04:30:42;95455.78;;;8.12
34310;BMP280;61664;48.112;11.662;2022-11-14T04:33:11;95459.47;;;8.14
34310;BMP280;61664;48.112;11.662;2022-11-14T04:35:37;95455.31;;;8.13
34310;BMP280;61664;48.112;11.662;2022-11-14T04:38:04;95445.56;;;8.10
34310;BMP280;61664;48.112;11.662;2022-11-14T04:40:31;95447.81;;;8.12
34310;BMP280;61664;48.112;11.662;2022-11-14T04:42:58;95430.03;;;8.09
34310;BMP280;61664;48.112;11.662;2022-11-14T04:45:25;95454.72;;;8.09
34310;BMP280;61664;48.112;11.662;2022-11-14T04:47:52;95452.50;;;8.08
34310;BMP280;61664;48.112;11.662;2022-11-14T04:50:19;95461.03;;;8.03
34310;BMP280;61664;48.112;11.662;2022-11-14T04:52:45;95461.03;;;8.03
34310;BMP280;61664;48.112;11.662;2022-11-14T04:55:12;95445.94;;;8.00
34310;BMP280;61664;48.112;11.662;2022-11-14T04:57:39;95442.81;;;7.92
34310;BMP280;61664;48.112;11.662;2022-11-14T05:00:07;95441.63;;;7.93
34310;BMP280;61664;48.112;11.662;2022-11-14T05:02:34;95446.94;;;7.93
34310;BMP280;61664;48.112;11.662;2022-11-14T05:05:01;95422.84;;;7.87
34310;BMP280;61664;48.112;11.662;2022-11-14T05:07:28;95428.03;;;7.91
34310;BMP280;61664;48.112;11.662;2022-11-14T05:09:55;95408.50;;;7.85
34310;BMP280;61664;48.112;11.662;2022-11-14T05:12:21;95415.59;;;7.88
34310;BMP280;61664;48.112;11.662;2022-11-14T05:14:48;95417.22;;;7.85
34310;BMP280;61664;48.112;11.662;2022-11-14T05:17:15;95412.03;;;7.82
34310;BMP280;61664;48.112;11.662;2022-11-14T05:19:42;95418.50;;;7.81
34310;BMP280;61664;48.112;11.662;2022-11-14T05:22:09;95449.00;;;7.89
34310;BMP280;61664;48.112;11.662;2022-11-14T05:24:36;95419.91;;;7.64
34310;BMP280;61664;48.112;11.662;2022-11-14T05:27:03;95429.94;;;7.69
34310;BMP280;61664;48.112;11.662;2022-11-14T05:29:30;95429.66;;;7.67
34310;BMP280;61664;48.112;11.662;2022-11-14T05:31:57;95433.50;;;7.66
34310;BMP280;61664;48.112;11.662;2022-11-14T05:34:24;95444.88;;;7.66
34310;BMP280;61664;48.112;11.662;2022-11-14T05:36:50;95439.41;;;7.70
34310;BMP280;61664;48.112;11.662;2022-11-14T05:39:17;95438.22;;;7.71
34310;BMP280;61664;48.112;11.662;2022-11-14T05:41:44;95453.97;;;7.78
34310;BMP280;61664;48.112;11.662;2022-11-14T05:44:11;95449.81;;;7.77
34310;BMP280;61664;48.112;11.662;2022-11-14T05:46:38;95464.16;;;7.79
34310;BMP280;61664;48.112;11.662;2022-11-14T05:49:05;95472.59;;;7.78
34310;BMP280;61664;48.112;11.662;2022-11-14T05:51:31;95465.16;;;7.73
34310;BMP280;61664;48.112;11.662;2022-11-14T05:53:58;95470.47;;;7.73
34310;BMP280;61664;48.112;11.662;2022-11-14T05:56:25;95467.13;;;7.59
34310;BMP280;61664;48.112;11.662;2022-11-14T05:58:52;95476.19;;;7.49
34310;BMP280;61664;48.112;11.662;2022-11-14T06:01:22;95480.53;;;7.34
34310;BMP280;61664;48.112;11.662;2022-11-14T06:03:49;95483.53;;;7.23
34310;BMP280;61664;48.112;11.662;2022-11-14T06:06:19;95485.44;;;7.10
34310;BMP280;61664;48.112;11.662;2022-11-14T06:08:47;95488.38;;;7.03
34310;BMP280;61664;48.112;11.662;2022-11-14T06:11:20;95484.22;;;6.89
34310;BMP280;61664;48.112;11.662;2022-11-14T06:13:47;95490.09;;;6.84
34310;BMP280;61664;48.112;11.662;2022-11-14T06:16:17;95498.50;;;6.83
34310;BMP280;61664;48.112;11.662;2022-11-14T06:18:45;95503.06;;;6.82
34310;BMP280;61664;48.112;11.662;2022-11-14T06:21:19;95492.31;;;6.86
34310;BMP280;61664;48.112;11.662;2022-11-14T06:23:47;95483.16;;;6.87
34310;BMP280;61664;48.112;11.662;2022-11-14T06:26:43;95495.94;;;6.92
34310;BMP280;61664;48.112;11.662;2022-11-14T06:29:10;95480.94;;;6.85
34310;BMP280;61664;48.112;11.662;2022-11-14T06:31:37;95487.31;;;6.88
34310;BMP280;61664;48.112;11.662;2022-11-14T06:34:04;95483.81;;;6.91
34310;BMP280;61664;48.112;11.662;2022-11-14T06:36:31;95497.41;;;7.06
34310;BMP280;61664;48.112;11.662;2022-11-14T06:38:58;95497.59;;;7.11
34310;BMP280;61664;48.112;11.662;2022-11-14T06:41:25;95491.50;;;7.11
34310;BMP280;61664;48.112;11.662;2022-11-14T06:43:52;95485.16;;;7.21
34310;BMP280;61664;48.112;11.662;2022-11-14T06:46:21;95488.41;;;7.25
34310;BMP280;61664;48.112;11.662;2022-11-14T06:48:49;95494.13;;;7.36
34310;BMP280;61664;48.112;11.662;2022-11-14T06:51:18;95504.22;;;7.41
34310;BMP280;61664;48.112;11.662;2022-11-14T06:53:45;95500.41;;;7.42
34310;BMP280;61664;48.112;11.662;2022-11-14T06:56:15;95485.41;;;7.36
34310;BMP280;61664;48.112;11.662;2022-11-14T06:58:47;95487.63;;;7.37
34310;BMP280;61664;48.112;11.662;2022-11-14T07:01:22;95480.81;;;7.36
34310;BMP280;61664;48.112;11.662;2022-11-14T07:03:49;95483.72;;;7.29
34310;BMP280;61664;48.112;11.662;2022-11-14T07:06:20;95490.88;;;7.32
34310;BMP280;61664;48.112;11.662;2022-11-14T07:08:48;95485.41;;;7.36
34310;BMP280;61664;48.112;11.662;2022-11-14T07:11:19;95485.28;;;7.39
34310;BMP280;61664;48.112;11.662;2022-11-14T07:13:57;95482.09;;;7.44
34310;BMP280;61664;48.112;11.662;2022-11-14T07:16:33;95490.97;;;7.50
34310;BMP280;61664;48.112;11.662;2022-11-14T07:19:03;95489.41;;;7.53
34310;BMP280;61664;48.112;11.662;2022-11-14T07:21:33;95488.00;;;7.48
34310;BMP280;61664;48.112;11.662;2022-11-14T07:24:00;95478.56;;;7.47
34310;BMP280;61664;48.112;11.662;2022-11-14T07:26:27;95484.81;;;7.53
34310;BMP280;61664;48.112;11.662;2022-11-14T07:28:54;95499.03;;;7.59
34310;BMP280;61664;48.112;11.662;2022-11-14T07:31:28;95505.81;;;7.60
34310;BMP280;61664;48.112;11.662;2022-11-14T07:33:54;95499.38;;;7.49
34310;BMP280;61664;48.112;11.662;2022-11-14T07:36:22;95510.56;;;7.56
34310;BMP280;61664;48.112;11.662;2022-11-14T07:38:49;95490.97;;;7.50
34310;BMP280;61664;48.112;11.662;2022-11-14T07:41:16;95501.69;;;7.59
34310;BMP280;61664;48.112;11.662;2022-11-14T07:43:43;95503.75;;;7.55
34310;BMP280;61664;48.112;11.662;2022-11-14T07:46:15;95497.53;;;7.58
34310;BMP280;61664;48.112;11.662;2022-11-14T07:48:43;95499.66;;;7.64
34310;BMP280;61664;48.112;11.662;2022-11-14T07:51:17;95495.59;;;7.72
34310;BMP280;61664;48.112;11.662;2022-11-14T07:53:45;95481.13;;;7.73
34310;BMP280;61664;48.112;11.662;2022-11-14T07:56:12;95463.13;;;7.77
34310;BMP280;61664;48.112;11.662;2022-11-14T07:58:40;95464.97;;;7.89
34310;BMP280;61664;48.112;11.662;2022-11-14T08:01:11;95474.69;;;8.14
34310;BMP280;61664;48.112;11.662;2022-11-14T08:03:39;95468.13;;;8.37
34310;BMP280;61664;48.112;11.662;2022-11-14T08:06:14;95468.69;;;8.63
34310;BMP280;61664;48.112;11.662;2022-11-14T08:08:42;95478.34;;;8.87
34310;BMP280;61664;48.112;11.662;2022-11-14T08:11:10;95477.81;;;9.02
34310;BMP280;61664;48.112;11.662;2022-11-14T08:13:36;95468.91;;;9.14
34310;BMP280;61664;48.112;11.662;2022-11-14T08:16:08;95450.53;;;9.34
34310;BMP280;61664;48.112;11.662;2022-11-14T08:18:40;95459.41;;;9.77
34310;BMP280;61664;48.112;11.662;2022-11-14T08:21:07;95451.00;;;10.11
34310;BMP280;61664;48.112;11.662;2022-11-14T08:23:34;95443.09;;;10.50
34310;BMP280;61664;48.112;11.662;2022-11-14T08:26:01;95433.84;;;10.84
34310;BMP280;61664;48.112;11.662;2022-11-14T08:28:28;95445.56;;;11.25
34310;BMP280;61664;48.112;11.662;2022-11-14T08:31:03;95463.28;;;11.67
34310;BMP280;61664;48.112;11.662;2022-11-14T08:33:31;95444.97;;;11.95
34310;BMP280;61664;48.112;11.662;2022-11-14T08:36:05;95443.84;;;12.16
34310;BMP280;61664;48.112;11.662;2022-11-14T08:38:33;95449.97;;;12.37
34310;BMP280;61664;48.112;11.662;2022-11-14T08:41:01;95455.09;;;12.55
34310;BMP280;61664;48.112;11.662;2022-11-14T08:43:30;95453.91;;;12.76
34310;BMP280;61664;48.112;11.662;2022-11-14T08:46:03;95465.16;;;13.01
34310;BMP280;61664;48.112;11.662;2022-11-14T08:48:31;95468.72;;;13.18
34310;BMP280;61664;48.112;11.662;2022-11-14T08:51:04;95459.00;;;13.46
34310;BMP280;61664;48.112;11.662;2022-11-14T08:53:32;95452.09;;;13.66
34310;BMP280;61664;48.112;11.662;2022-11-14T08:55:59;95441.75;;;13.84
34310;BMP280;61664;48.112;11.662;2022-11-14T08:58:28;95441.09;;;13.95
34310;BMP280;61664;48.112;11.662;2022-11-14T09:01:05;95435.34;;;14.13
34310;BMP280;61664;48.112;11.662;2022-11-14T09:03:33;95431.00;;;14.21
34310;BMP280;61664;48.112;11.662;2022-11-14T09:06:02;95438.59;;;14.28
34310;BMP280;61664;48.112;11.662;2022-11-14T09:08:29;95448.63;;;14.28
34310;BMP280;61664;48.112;11.662;2022-11-14T09:11:01;95439.53;;;14.20
34310;BMP280;61664;48.112;11.662;2022-11-14T09:13:33;95439.78;;;14.16
34310;BMP280;61664;48.112;11.662;2022-11-14T09:16:00;95442.69;;;14.18
34310;BMP280;61664;48.112;11.662;2022-11-14T09:18:29;95445.19;;;14.27
34310;BMP280;61664;48.112;11.662;2022-11-14T09:21:06;95447.69;;;14.37
34310;BMP280;61664;48.112;11.662;2022-11-14T09:23:34;95438.44;;;14.49
34310;BMP280;61664;48.112;11.662;2022-11-14T09:26:07;95432.41;;;14.59
34310;BMP280;61664;48.112;11.662;2022-11-14T09:28:35;95447.78;;;14.59
34310;BMP280;61664;48.112;11.662;2022-11-14T09:31:09;95428.91;;;14.48
34310;BMP280;61664;48.112;11.662;2022-11-14T09:33:36;95443.66;;;14.63
34310;BMP280;61664;48.112;11.662;2022-11-14T09:36:06;95447.84;;;14.70
34310;BMP280;61664;48.112;11.662;2022-11-14T09:38:34;95436.84;;;14.79
34310;BMP280;61664;48.112;11.662;2022-11-14T09:46:21;95450.97;;;15.61
34310;BMP280;61664;48.112;11.662;2022-11-14T09:48:51;95457.06;;;15.95
34310;BMP280;61664;48.112;11.662;2022-11-14T09:51:48;95458.72;;;16.09
34310;BMP280;61664;48.112;11.662;2022-11-14T09:54:24;95462.16;;;16.21
34310;BMP280;61664;48.112;11.662;2022-11-14T09:56:52;95452.53;;;16.37
34310;BMP280;61664;48.112;11.662;2022-11-14T09:59:19;95449.94;;;16.72
34310;BMP280;61664;48.112;11.662;2022-11-14T10:02:33;95444.94;;;17.29
34310;BMP280;61664;48.112;11.662;2022-11-14T10:05:43;95453.66;;;18.00
34310;BMP280;61664;48.112;11.662;2022-11-14T10:08:46;95469.25;;;18.56
34310;BMP280;61664;48.112;11.662;2022-11-14T10:17:44;95463.06;;;19.88
34310;BMP280;61664;48.112;11.662;2022-11-14T10:20:22;95462.97;;;19.81
34310;BMP280;61664;48.112;11.662;2022-11-14T10:39:40;95452.34;;;18.31
34310;BMP280;61664;48.112;11.662;2022-11-14T10:42:34;95465.91;;;18.68
34310;BMP280;61664;48.112;11.662;2022-11-14T10:45:26;95460.28;;;19.17
34310;BMP280;61664;48.112;11.662;2022-11-14T10:48:01;95457.91;;;19.59
34310;BMP280;61664;48.112;11.662;2022-11-14T10:50:55;95459.22;;;20.10
34310;BMP280;61664;48.112;11.662;2022-11-14T10:55:57;95447.88;;;21.14
34310;BMP280;61664;48.112;11.662;2022-11-14T10:58:31;95468.94;;;21.62
34310;BMP280;61664;48.112;11.662;2022-11-14T11:01:35;95454.88;;;21.71
34310;BMP280;61664;48.112;11.662;2022-11-14T11:04:31;95467.88;;;21.65
34310;BMP280;61664;48.112;11.662;2022-11-14T11:09:39;95477.78;;;21.55
34310;BMP280;61664;48.112;11.662;2022-11-14T11:12:45;95471.53;;;21.26
34310;BMP280;61664;48.112;11.662;2022-11-14T11:15:27;95472.78;;;21.04
34310;BMP280;61664;48.112;11.662;2022-11-14T11:18:03;95490.59;;;20.92
34310;BMP280;61664;48.112;11.662;2022-11-14T11:20:38;95470.44;;;20.88
34310;BMP280;61664;48.112;11.662;2022-11-14T11:25:38;95490.50;;;21.19
34310;BMP280;61664;48.112;11.662;2022-11-14T11:28:18;95489.88;;;21.13
34310;BMP280;61664;48.112;11.662;2022-11-14T11:31:06;95488.94;;;20.89
34310;BMP280;61664;48.112;11.662;2022-11-14T11:33:36;95494.97;;;20.61
34310;BMP280;61664;48.112;11.662;2022-11-14T11:36:14;95490.53;;;20.24
34310;BMP280;61664;48.112;11.662;2022-11-14T11:38:44;95499.88;;;19.84
34310;BMP280;61664;48.112;11.662;2022-11-14T11:41:33;95493.66;;;19.25
34310;BMP280;61664;48.112;11.662;2022-11-14T11:44:32;95502.41;;;18.81
34310;BMP280;61664;48.112;11.662;2022-11-14T11:47:07;95511.59;;;18.53
34310;BMP280;61664;48.112;11.662;2022-11-14T11:49:49;95507.72;;;18.24
34310;BMP280;61664;48.112;11.662;2022-11-14T11:52:33;95495.41;;;17.99
34310;BMP280;61664;48.112;11.662;2022-11-14T11:57:41;95515.84;;;17.70
34310;BMP280;61664;48.112;11.662;2022-11-14T12:00:20;95519.13;;;17.57
34310;BMP280;61664;48.112;11.662;2022-11-14T12:02:50;95529.25;;;17.46
34310;BMP280;61664;48.112;11.662;2022-11-14T12:05:27;95515.63;;;17.33
34310;BMP280;61664;48.112;11.662;2022-11-14T12:08:05;95520.16;;;17.13
34310;BMP280;61664;48.112;11.662;2022-11-14T12:10:39;95519.53;;;16.91
34310;BMP280;61664;48.112;11.662;2022-11-14T12:13:45;95522.50;;;16.81
34310;BMP280;61664;48.112;11.662;2022-11-14T12:17:11;95526.91;;;16.84
34310;BMP280;61664;48.112;11.662;2022-11-14T12:31:14;95539.53;;;16.48
34310;BMP280;61664;48.112;11.662;2022-11-14T12:33:54;95532.19;;;16.43
34310;BMP280;61664;48.112;11.662;2022-11-14T12:36:32;95533.88;;;16.46
34310;BMP280;61664;48.112;11.662;2022-11-14T12:39:01;95545.41;;;16.53
34310;BMP280;61664;48.112;11.662;2022-11-14T12:41:35;95545.88;;;16.57
34310;BMP280;61664;48.112;11.662;2022-11-14T12:44:34;95551.53;;;16.64
34310;BMP280;61664;48.112;11.662;2022-11-14T13:00:28;95553.66;;;17.35
34310;BMP280;61664;48.112;11.662;2022-11-14T13:06:03;95566.63;;;17.42
34310;BMP280;61664;48.112;11.662;2022-11-14T13:11:47;95550.41;;;17.42
34310;BMP280;61664;48.112;11.662;2022-11-14T13:14:50;95553.28;;;17.55
34310;BMP280;61664;48.112;11.662;2022-11-14T13:17:36;95541.22;;;17.62
34310;BMP280;61664;48.112;11.662;2022-11-14T13:20:34;95537.19;;;17.74
34310;BMP280;61664;48.112;11.662;2022-11-14T13:28:50;95548.53;;;17.96
34310;BMP280;61664;48.112;11.662;2022-11-14T13:31:22;95547.72;;;18.07
34310;BMP280;61664;48.112;11.662;2022-11-14T13:33:54;95549.34;;;18.16
34310;BMP280;61664;48.112;11.662;2022-11-14T13:36:57;95542.28;;;18.13
34310;BMP280;61664;48.112;11.662;2022-11-14T13:39:40;95552.28;;;18.18
34310;BMP280;61664;48.112;11.662;2022-11-14T13:50:38;95538.78;;;18.18
34310;BMP280;61664;48.112;11.662;2022-11-14T13:53:22;95548.09;;;18.22
34310;BMP280;61664;48.112;11.662;2022-11-14T14:07:31;95538.09;;;18.12
34310;BMP280;61664;48.112;11.662;2022-11-14T14:10:33;95537.19;;;18.04
34310;BMP280;61664;48.112;11.662;2022-11-14T14:16:39;95549.50;;;17.69
34310;BMP280;61664;48.112;11.662;2022-11-14T14:19:53;95547.19;;;17.49
34310;BMP280;61664;48.112;11.662;2022-11-14T14:25:46;95540.28;;;17.12
34310;BMP280;61664;48.112;11.662;2022-11-14T14:31:15;95545.09;;;16.73
34310;BMP280;61664;48.112;11.662;2022-11-14T14:33:45;95548.09;;;16.58
34310;BMP280;61664;48.112;11.662;2022-11-14T14:36:16;95552.53;;;16.39
34310;BMP280;61664;48.112;11.662;2022-11-14T14:38:45;95543.25;;;16.18
34310;BMP280;61664;48.112;11.662;2022-11-14T14:41:14;95540.81;;;16.03
34310;BMP280;61664;48.112;11.662;2022-11-14T14:43:50;95532.00;;;15.86
34310;BMP280;61664;48.112;11.662;2022-11-14T14:46:32;95543.97;;;15.73
34310;BMP280;61664;48.112;11.662;2022-11-14T14:49:02;95543.25;;;15.62
34310;BMP280;61664;48.112;11.662;2022-11-14T14:51:35;95543.25;;;15.51
34310;BMP280;61664;48.112;11.662;2022-11-14T14:54:04;95547.59;;;15.37
34310;BMP280;61664;48.112;11.662;2022-11-14T14:56:33;95541.41;;;15.20
34310;BMP280;61664;48.112;11.662;2022-11-14T14:59:16;95541.66;;;15.11
34310;BMP280;61664;48.112;11.662;2022-11-14T15:01:44;95543.56;;;14.99
34310;BMP280;61664;48.112;11.662;2022-11-14T15:04:14;95551.63;;;14.93
34310;BMP280;61664;48.112;11.662;2022-11-14T15:06:45;95551.56;;;14.82
34310;BMP280;61664;48.112;11.662;2022-11-14T15:09:21;95539.22;;;14.59
34310;BMP280;61664;48.112;11.662;2022-11-14T15:11:55;95547.97;;;14.54
34310;BMP280;61664;48.112;11.662;2022-11-14T15:14:30;95547.19;;;14.48
34310;BMP280;61664;48.112;11.662;2022-11-14T15:16:59;95541.50;;;14.35
34310;BMP280;61664;48.112;11.662;2022-11-14T15:19:42;95552.69;;;14.27
34310;BMP280;61664;48.112;11.662;2022-11-14T15:27:49;95553.66;;;13.93
34310;BMP280;61664;48.112;11.662;2022-11-14T15:30:29;95544.00;;;13.81
34310;BMP280;61664;48.112;11.662;2022-11-14T15:33:01;95544.19;;;13.72
34310;BMP280;61664;48.112;11.662;2022-11-14T15:35:32;95533.59;;;13.63
34310;BMP280;61664;48.112;11.662;2022-11-14T15:41:24;95550.00;;;13.44
34310;BMP280;61664;48.112;11.662;2022-11-14T15:43:55;95545.03;;;13.37
34310;BMP280;61664;48.112;11.662;2022-11-14T15:49:26;95541.91;;;13.18
34310;BMP280;61664;48.112;11.662;2022-11-14T15:51:59;95536.69;;;13.09
34310;BMP280;61664;48.112;11.662;2022-11-14T15:54:33;95534.41;;;13.02
34310;BMP280;61664;48.112;11.662;2022-11-14T15:57:13;95545.78;;;12.97
34310;BMP280;61664;48.112;11.662;2022-11-14T15:59:40;95541.75;;;12.87
34310;BMP280;61664;48.112;11.662;2022-11-14T16:02:18;95530.91;;;12.76
34310;BMP280;61664;48.112;11.662;2022-11-14T16:04:47;95548.38;;;12.71
34310;BMP280;61664;48.112;11.662;2022-11-14T16:07:16;95530.03;;;12.49
34310;BMP280;61664;48.112;11.662;2022-11-14T16:09:43;95535.78;;;12.42
34310;BMP280;61664;48.112;11.662;2022-11-14T16:12:10;95545.94;;;12.38
34310;BMP280;61664;48.112;11.662;2022-11-14T16:14:37;95530.56;;;12.18
34310;BMP280;61664;48.112;11.662;2022-11-14T16:17:05;95560.03;;;12.18
34310;BMP280;61664;48.112;11.662;2022-11-14T16:19:31;95550.59;;;12.08
34310;BMP280;61664;48.112;11.662;2022-11-14T16:22:00;95544.63;;;11.99
34310;BMP280;61664;48.112;11.662;2022-11-14T16:24:29;95542.00;;;11.89
34310;BMP280;61664;48.112;11.662;2022-11-14T16:27:00;95535.09;;;11.83
34310;BMP280;61664;48.112;11.662;2022-11-14T16:29:27;95544.13;;;11.85
34310;BMP280;61664;48.112;11.662;2022-11-14T16:31:54;95541.34;;;11.80